Flight Track Log - Related Links

Times and Time Zones

All times are in EDT time to prevent confusion due to time zone crossing. See the WAV757 flight status page for this flight to view local times or setup timezone preferences in your user account.

Time Position Orientation Groundspeed Altitude Reporting Facility
EDT Latitude Longitude Course Direction KTS MPH feet Rate Location/Type
Wed 01:49:52 PM 65.1500 -151.8000 115° Southeast 160 184 3,500  Level Anchorage Center
Wed 01:50:52 PM 65.1333 -151.7167 115° Southeast 150 173 4,300 850 Climbing Anchorage Center
Wed 01:51:52 PM 65.1333 -151.6167 90° East 150 173 5,200 843 Climbing Anchorage Center
Wed 01:52:53 PM 65.1167 -151.5333 115° Southeast 140 161 6,000 694 Climbing Anchorage Center
Wed 01:53:53 PM 65.1167 -151.4333 90° East 150 173 6,600 500 Climbing Anchorage Center
Wed 01:54:53 PM 65.1000 -151.3333 112° Southeast 180 207 7,000 198 Climbing Anchorage Center
Wed 01:55:54 PM 65.1000 -151.2167 90° East 180 207 7,000  Level Anchorage Center
Wed 01:56:54 PM 65.0833 -151.0833 106° East 190 219 7,000  Level Anchorage Center
Wed 01:57:54 PM 65.0833 -150.9667 90° East 190 219 7,000  Level Anchorage Center
Wed 01:58:55 PM 65.0667 -150.8500 109° East 180 207 7,000  Level Anchorage Center
Wed 01:59:55 PM 65.0667 -150.7167 90° East 180 207 7,000  Level Anchorage Center
Wed 02:00:55 PM 65.0500 -150.6000 109° East 180 207 7,000  Level Anchorage Center
Wed 02:01:56 PM 65.0500 -150.4833 90° East 180 207 7,000  Level Anchorage Center
Wed 02:02:56 PM 65.0333 -150.3667 109° East 180 207 7,000  Level Anchorage Center
Wed 02:03:57 PM 65.0333 -150.2500 90° East 180 207 7,000  Level Anchorage Center
Wed 02:04:57 PM 65.0167 -150.1333 109° East 180 207 7,000  Level Anchorage Center
Wed 02:05:57 PM 65.0000 -150.0167 109° East 180 207 7,000  Level Anchorage Center
Wed 02:06:58 PM 65.0000 -149.9000 90° East 190 219 7,000  Level Anchorage Center
Wed 02:07:58 PM 64.9833 -149.7833 109° East 180 207 7,000  Level Anchorage Center
Wed 02:08:59 PM 64.9833 -149.6667 90° East 180 207 7,000  Level Anchorage Center
Wed 02:09:59 PM 64.9667 -149.5500 109° East 170 196 7,000  Level Anchorage Center
Wed 02:10:59 PM 64.9500 -149.4333 109° East 180 207 7,000  Level Anchorage Center
Wed 02:12:00 PM 64.9415 -149.3256 101° East  Level FlightAware Approximate
Wed 02:19:00 PM 64.8749 -148.5907 108° East  Level FlightAware Approximate
Wed 02:20:00 PM 64.8627 -148.4873 101° East  Level FlightAware Approximate
Wed 02:21:00 PM 64.8535 -148.3820 102° East  Level FlightAware Approximate
Wed 02:22:00 PM 64.8443 -148.2768 102° East  Level FlightAware Approximate
Wed 02:23:00 PM 64.8350 -148.1717 102° East  Level FlightAware Approximate
Wed 02:24:00 PM 64.8257 -148.0666 102° East  Level FlightAware Approximate
Wed 02:25:00 PM 64.8160 -147.9618 109° East  Level FlightAware Approximate
Wed 02:26:00 PM 64.8015 -147.8601 109° East  Level FlightAware Approximate
Wed 02:27:00 PM 64.8000 -147.8500 109° East  Level FlightAware Approximate
Wed 02:28:00 PM 64.8151 -147.8564 109° East  Level Estimated
Wed 02:29:00 PM 64.8151 -147.8564 109° East  Level Estimated
Wed 02:30:00 PM 64.8151 -147.8564 109° East  Level Estimated
Wed 02:31:00 PM 64.8151 -147.8564 109° East  Level Estimated
Wed 02:32:00 PM 64.8151 -147.8564 109° East  Level Estimated
Wed 02:33:00 PM 64.8151 -147.8564 109° East  Level Estimated
Wed 02:34:00 PM 64.8151 -147.8564 109° East  Level Estimated
Wed 02:35:00 PM 64.8151 -147.8564 109° East  Level Estimated
Wed 02:36:00 PM 64.8151 -147.8564 109° East  Level Estimated
Wed 02:37:00 PM 64.8151 -147.8564 109° East  Level Estimated
Wed 02:38:00 PM 64.8151 -147.8564 109° East  Level Estimated
Wed 02:39:00 PM 64.8151 -147.8564 109° East  Level Estimated
Wed 02:40:00 PM 64.8151 -147.8564 109° East  Level Estimated
Wed 02:41:00 PM 64.8151 -147.8564 109° East  Level Estimated
Wed 02:42:00 PM 64.8151 -147.8564 109° East  Level Estimated

Login

Don't have an account? Register now (free) for customized features, flight alerts, and more!